Time;durP1;ratioP1;P1;durP2;ratioP2;P2;SDS_P1;SDS_P2;PMS_P1;PMS_P2;Temp;Humidity;BMP_temperature;BMP_pressure;BME280_temperature;BME280_humidity;BME280_pressure;Samples;Min_cycle;Max_cycle;Signal;HPM_P1;HPM_P2
2021/03/10 00:02:02;;;;;;;18.13;13.23;;;;;;;-144.99;80.15;52329.88;5055692;28;20644;-77
2021/03/10 00:04:31;;;;;;;22.23;12.83;;;;;;;-144.99;80.24;52305.41;5055832;28;20432;-76
2021/03/10 00:06:58;;;;;;;17.47;12.43;;;;;;;-144.99;80.24;52305.41;5050594;28;21118;-75
2021/03/10 00:09:24;;;;;;;19.97;12.20;;;;;;;-144.99;80.10;52280.97;5055877;28;20624;-76
2021/03/10 00:11:50;;;;;;;20.43;12.33;;;;;;;-144.99;80.17;52317.66;5052929;28;20631;-77
2021/03/10 00:14:16;;;;;;;23.73;13.90;;;;;;;-144.99;80.22;52313.56;5053640;28;21030;-77
2021/03/10 00:16:42;;;;;;;16.33;12.00;;;;;;;-144.99;80.21;52260.56;5048892;28;20324;-76
2021/03/10 00:19:08;;;;;;;15.20;10.30;;;;;;;-144.99;80.20;52272.81;5049743;28;20216;-77
2021/03/10 00:21:34;;;;;;;19.57;14.10;;;;;;;-144.99;80.24;52311.53;5049592;28;20686;-77
2021/03/10 00:24:01;;;;;;;14.70;10.87;;;;;;;-144.99;80.18;52303.38;5050653;28;20202;-76
2021/03/10 00:26:27;;;;;;;17.67;13.23;;;;;;;-144.99;80.20;52348.22;5050449;28;20659;-75
2021/03/10 00:28:53;;;;;;;14.40;11.20;;;;;;;-144.99;80.16;52276.88;5048791;28;20662;-76
2021/03/10 00:31:19;;;;;;;18.33;13.60;;;;;;;-144.99;80.09;52311.53;5050406;28;20602;-75
2021/03/10 00:33:45;;;;;;;17.20;11.50;;;;;;;-144.99;80.05;52309.50;5050341;28;20746;-74
2021/03/10 00:36:11;;;;;;;21.73;13.70;;;;;;;-144.99;80.05;52321.72;5054624;28;20288;-73
2021/03/10 00:38:37;;;;;;;22.50;14.00;;;;;;;-144.99;80.07;52301.34;5046319;28;22075;-72
2021/03/10 00:41:04;;;;;;;20.20;13.23;;;;;;;-144.99;79.97;52285.03;5045913;28;20631;-75
2021/03/10 00:43:30;;;;;;;16.30;11.80;;;;;;;-144.99;79.91;52289.13;5045985;28;20636;-73
2021/03/10 00:45:56;;;;;;;23.13;12.53;;;;;;;-144.99;79.81;52283.00;5043994;28;20672;-74
2021/03/10 00:48:22;;;;;;;21.27;12.97;;;;;;;-144.99;79.89;52260.56;5046947;28;20652;-75
2021/03/10 00:50:48;;;;;;;25.43;14.70;;;;;;;-144.99;79.97;52301.34;5045181;28;21208;-75
2021/03/10 00:53:14;;;;;;;19.77;14.27;;;;;;;-144.99;80.03;52342.09;5052417;28;21176;-75
2021/03/10 00:55:40;;;;;;;22.30;14.43;;;;;;;-144.99;79.92;52272.81;5046548;28;20616;-76
2021/03/10 00:58:07;;;;;;;22.00;14.90;;;;;;;-144.99;79.86;52276.88;5046288;28;20317;-76
2021/03/10 01:00:33;;;;;;;25.20;15.13;;;;;;;-144.99;79.94;52293.19;5044320;28;20281;-77
2021/03/10 01:02:59;;;;;;;24.07;17.30;;;;;;;-144.99;80.17;52323.75;5046116;28;20792;-76
2021/03/10 01:05:25;;;;;;;24.63;13.33;;;;;;;-144.99;80.08;52278.91;5044131;28;21211;-74
2021/03/10 01:07:51;;;;;;;25.60;15.77;;;;;;;-144.99;80.10;52295.22;5045112;28;20299;-75
2021/03/10 01:10:18;;;;;;;21.90;13.30;;;;;;;-144.99;79.93;52303.38;5046335;28;20201;-75
2021/03/10 01:12:45;;;;;;;21.70;13.20;;;;;;;-144.99;80.00;52309.50;5045185;28;22163;-75
2021/03/10 01:15:16;;;;;;;21.10;12.83;;;;;;;-144.99;79.86;52305.41;5040701;28;20639;-75
2021/03/10 01:17:43;;;;;;;15.73;12.20;;;;;;;-144.99;79.76;52321.72;5045388;28;21275;-75
2021/03/10 01:20:12;;;;;;;17.80;12.17;;;;;;;-144.99;79.85;52285.03;5043531;28;20718;-75
2021/03/10 01:22:38;;;;;;;26.57;15.40;;;;;;;-144.99;79.69;52313.56;5045130;28;20632;-75
2021/03/10 01:25:06;;;;;;;25.23;15.53;;;;;;;-144.99;79.73;52287.06;5045769;28;20684;-75
2021/03/10 01:27:32;;;;;;;24.77;16.27;;;;;;;-144.99;79.72;52305.41;5044927;28;20697;-75
2021/03/10 01:29:58;;;;;;;18.87;15.73;;;;;;;-144.99;79.82;52338.03;5044557;28;20689;-74
2021/03/10 01:32:25;;;;;;;26.07;14.93;;;;;;;-144.99;79.83;52297.25;5044973;28;20689;-75
2021/03/10 01:34:51;;;;;;;22.17;14.20;;;;;;;-144.99;79.87;52313.56;5045118;28;20620;-74
2021/03/10 01:37:18;;;;;;;21.20;13.70;;;;;;;-144.99;79.85;52315.59;5043961;28;20663;-73
2021/03/10 01:39:44;;;;;;;21.13;14.20;;;;;;;-144.99;79.91;52307.47;5044331;28;20217;-73
2021/03/10 01:42:10;;;;;;;19.63;13.70;;;;;;;-144.99;79.91;52297.25;5045324;28;20707;-74
2021/03/10 01:44:37;;;;;;;18.43;12.90;;;;;;;-144.99;79.63;52309.50;5044795;28;20202;-73
2021/03/10 01:47:03;;;;;;;25.70;17.30;;;;;;;-144.99;79.67;52325.81;5043210;28;21045;-75
2021/03/10 01:49:30;;;;;;;28.97;16.80;;;;;;;-144.99;79.51;52297.25;5041235;28;21003;-75
2021/03/10 01:51:56;;;;;;;29.67;16.73;;;;;;;-144.99;79.07;52321.72;5042983;28;20946;-75
2021/03/10 01:54:25;;;;;;;29.87;19.67;;;;;;;-144.99;78.81;52321.72;5052142;28;20632;-75
2021/03/10 01:56:51;;;;;;;23.60;16.47;;;;;;;-144.99;78.86;52315.59;5056010;28;20667;-75
2021/03/10 01:59:17;;;;;;;26.20;16.97;;;;;;;-144.99;79.03;52305.41;5047809;28;20831;-74
2021/03/10 02:01:43;;;;;;;35.40;15.33;;;;;;;-144.99;78.93;52321.72;5084403;22;20835;-74
2021/03/10 02:04:10;;;;;;;23.73;15.50;;;;;;;-144.99;78.96;52329.88;5064217;28;20619;-75
2021/03/10 02:06:50;;;;;;;23.57;15.33;;;;;;;-144.99;78.79;52317.66;5065995;28;21145;-75
2021/03/10 02:09:23;;;;;;;25.20;15.73;;;;;;;-144.99;78.88;52307.47;5066350;28;20738;-76
2021/03/10 02:11:57;;;;;;;26.30;18.47;;;;;;;-144.99;78.77;52313.56;5066187;28;20721;-76
2021/03/10 02:14:28;;;;;;;23.20;15.20;;;;;;;-144.99;78.84;52283.00;5051891;28;20638;-76
2021/03/10 02:16:57;;;;;;;31.67;17.57;;;;;;;-144.99;78.97;52331.91;5055020;28;21201;-76
2021/03/10 02:19:59;;;;;;;23.87;16.07;;;;;;;-144.99;78.96;52317.66;5065912;28;20659;-76
2021/03/10 02:22:49;;;;;;;34.77;16.33;;;;;;;-144.99;79.10;52354.34;5065241;28;20681;-75
2021/03/10 02:25:24;;;;;;;24.70;16.20;;;;;;;-144.99;78.90;52297.25;5067092;28;20707;-75
2021/03/10 02:27:52;;;;;;;22.57;16.77;;;;;;;-144.99;78.79;52354.34;5064006;28;20642;-76
2021/03/10 02:30:21;;;;;;;25.20;16.77;;;;;;;-144.99;78.96;52285.03;5063646;28;21256;-76
2021/03/10 02:32:52;;;;;;;21.33;14.57;;;;;;;-144.99;78.82;52297.25;5063646;28;20627;-76
2021/03/10 02:35:20;;;;;;;29.53;15.63;;;;;;;-144.99;78.84;52272.81;5067690;28;21204;-76
2021/03/10 02:37:51;;;;;;;18.60;13.40;;;;;;;-144.99;78.92;52293.19;5066714;28;20623;-76
2021/03/10 02:40:18;;;;;;;22.20;16.00;;;;;;;-144.99;78.89;52305.41;5075010;28;21251;-77
2021/03/10 02:42:46;;;;;;;17.80;11.63;;;;;;;-144.99;78.85;52346.19;5090483;28;20706;-77
2021/03/10 02:45:14;;;;;;;16.17;12.80;;;;;;;-144.99;78.83;52350.25;5080887;28;20660;-76
2021/03/10 02:47:41;;;;;;;21.10;14.53;;;;;;;-144.99;78.91;52342.09;5072676;28;20622;-76
2021/03/10 02:50:09;;;;;;;24.00;16.10;;;;;;;-144.99;79.05;52329.88;5064620;28;20625;-75
2021/03/10 02:52:36;;;;;;;17.77;13.00;;;;;;;-144.99;78.98;52283.00;5063416;28;20716;-76
2021/03/10 02:55:03;;;;;;;19.63;14.13;;;;;;;-144.99;79.13;52287.06;5070798;28;20631;-75
2021/03/10 02:57:30;;;;;;;23.00;15.83;;;;;;;-144.99;79.14;52342.09;5071963;28;20634;-75
2021/03/10 02:59:56;;;;;;;20.17;15.33;;;;;;;-144.99;79.28;52313.56;5065414;28;21260;-76
2021/03/10 03:02:23;;;;;;;27.67;16.90;;;;;;;-144.99;79.32;52321.72;5057737;28;21079;-76
2021/03/10 03:04:49;;;;;;;26.07;17.13;;;;;;;-144.99;79.49;52285.03;5055339;28;21181;-76
2021/03/10 03:07:15;;;;;;;27.13;15.97;;;;;;;-144.99;79.67;52311.53;5057911;28;21300;-77
2021/03/10 03:09:41;;;;;;;31.53;17.70;;;;;;;-144.99;79.83;52305.41;5056463;28;20668;-76
2021/03/10 03:12:08;;;;;;;23.30;15.70;;;;;;;-144.99;79.70;52287.06;5058258;28;20252;-76
2021/03/10 03:14:39;;;;;;;28.47;18.50;;;;;;;-144.99;79.76;52309.50;5057946;28;20627;-76
2021/03/10 03:17:06;;;;;;;21.63;15.47;;;;;;;-144.99;79.63;52317.66;5063461;28;20619;-76
2021/03/10 03:19:33;;;;;;;25.10;15.63;;;;;;;-144.99;79.60;52321.72;5057712;28;20648;-76
2021/03/10 03:22:01;;;;;;;30.43;15.40;;;;;;;-144.99;79.71;52317.66;5058020;28;20669;-77
2021/03/10 03:24:29;;;;;;;23.97;13.00;;;;;;;-144.99;79.76;52301.34;5055514;28;21005;-76
2021/03/10 03:26:56;;;;;;;23.90;13.93;;;;;;;-144.99;79.81;52321.72;5057191;28;21209;-77
2021/03/10 03:29:24;;;;;;;26.23;18.23;;;;;;;-144.99;80.02;52283.00;5056428;28;20643;-74
2021/03/10 03:31:51;;;;;;;32.30;19.60;;;;;;;-144.99;80.15;52321.72;5059479;28;20673;-78
2021/03/10 03:34:17;;;;;;;30.57;22.20;;;;;;;-144.99;80.68;52327.84;5060706;28;20661;-78
2021/03/10 03:36:45;;;;;;;25.77;15.90;;;;;;;-144.99;80.71;52313.56;5058031;28;20619;-78
2021/03/10 03:39:11;;;;;;;24.03;18.13;;;;;;;-144.99;80.97;52317.66;5061675;28;21212;-78
2021/03/10 03:41:39;;;;;;;36.13;20.60;;;;;;;-144.99;81.21;52317.66;5056493;28;20666;-78
2021/03/10 03:44:05;;;;;;;32.93;18.37;;;;;;;-144.99;81.47;52317.66;5060863;28;21045;-78
2021/03/10 03:46:32;;;;;;;29.13;18.40;;;;;;;-144.99;81.56;52342.09;5068351;28;20634;-78
2021/03/10 03:48:58;;;;;;;36.07;18.77;;;;;;;-144.99;81.66;52309.50;5062215;28;20634;-76
2021/03/10 03:51:26;;;;;;;32.10;18.53;;;;;;;-144.99;81.60;52342.09;5070125;28;21069;-77
2021/03/10 03:54:00;;;;;;;29.20;16.57;;;;;;;-144.99;81.46;52342.09;5064764;28;20627;-75
2021/03/10 03:56:27;;;;;;;31.60;17.13;;;;;;;-144.99;81.58;52323.75;5058396;28;20630;-76
2021/03/10 03:58:53;;;;;;;29.47;17.90;;;;;;;-144.99;81.66;52315.59;5064458;28;20666;-75
2021/03/10 04:01:20;;;;;;;22.53;16.60;;;;;;;-144.99;81.56;52321.72;5051330;28;21228;-75
2021/03/10 04:03:47;;;;;;;23.40;15.20;;;;;;;-144.99;81.12;52276.88;5059108;28;20615;-76
2021/03/10 04:06:13;;;;;;;30.33;16.57;;;;;;;-144.99;81.66;52342.09;5057862;28;20624;-76
2021/03/10 04:08:41;;;;;;;22.70;14.57;;;;;;;-144.99;81.51;52309.50;5057567;28;20619;-74
2021/03/10 04:11:09;;;;;;;25.53;15.37;;;;;;;-144.99;81.49;52323.75;5054645;28;20693;-76
2021/03/10 04:13:35;;;;;;;24.87;17.70;;;;;;;-144.99;81.86;52315.59;5061531;28;20662;-76
2021/03/10 04:16:01;;;;;;;30.60;19.10;;;;;;;-144.99;81.91;52329.88;5056327;28;20724;-75
2021/03/10 04:18:27;;;;;;;29.93;17.67;;;;;;;-144.99;81.97;52350.25;5058799;28;20639;-76
2021/03/10 04:20:53;;;;;;;22.03;15.50;;;;;;;-144.99;82.03;52321.72;5057110;28;20660;-76
2021/03/10 04:23:19;;;;;;;23.77;15.97;;;;;;;-144.99;82.02;52299.31;5059025;28;20646;-76
2021/03/10 04:25:45;;;;;;;31.43;16.77;;;;;;;-144.99;82.21;52313.56;5058310;28;20295;-76
2021/03/10 04:28:12;;;;;;;26.07;17.07;;;;;;;-144.99;82.56;52309.50;5051150;28;20216;-77
2021/03/10 04:30:38;;;;;;;34.30;18.83;;;;;;;-144.99;82.53;52309.50;5054238;28;20347;-75
2021/03/10 04:33:04;;;;;;;29.17;17.33;;;;;;;-144.99;82.66;52315.59;5060717;28;20634;-78
2021/03/10 04:35:30;;;;;;;30.63;19.60;;;;;;;-144.99;82.87;52299.31;5057521;28;21161;-77
2021/03/10 04:37:56;;;;;;;31.47;18.93;;;;;;;-144.99;83.05;52317.66;5058361;28;20620;-77
2021/03/10 04:40:23;;;;;;;35.80;20.67;;;;;;;-144.99;83.32;52366.56;5053014;28;21247;-76
2021/03/10 04:42:49;;;;;;;33.07;20.87;;;;;;;-144.99;83.72;52293.19;5060101;28;20190;-76
2021/03/10 04:45:16;;;;;;;35.80;19.50;;;;;;;-144.99;83.59;52350.25;5056884;28;20608;-75
2021/03/10 04:47:44;;;;;;;30.93;19.40;;;;;;;-144.99;83.34;52340.06;5057069;28;20624;-76
2021/03/10 04:50:12;;;;;;;33.30;16.97;;;;;;;-144.99;83.42;52293.19;5053692;28;20630;-75
2021/03/10 04:52:38;;;;;;;22.70;17.30;;;;;;;-144.99;83.48;52305.41;5057063;28;20683;-75
2021/03/10 04:55:06;;;;;;;36.40;19.90;;;;;;;-144.99;83.31;52317.66;5058657;28;20631;-76
2021/03/10 04:57:33;;;;;;;23.07;18.23;;;;;;;-144.99;83.64;52289.13;5060093;28;20627;-76
2021/03/10 04:59:59;;;;;;;25.63;17.13;;;;;;;-144.99;83.48;52317.66;5057220;28;20658;-76
2021/03/10 05:02:25;;;;;;;23.13;15.70;;;;;;;-144.99;83.37;52309.50;5059143;28;20673;-76
2021/03/10 05:04:51;;;;;;;20.97;13.43;;;;;;;-144.99;83.14;52346.19;5062811;28;20619;-77
2021/03/10 05:07:17;;;;;;;22.23;16.70;;;;;;;-144.99;82.97;52295.22;5058896;28;20634;-76
2021/03/10 05:09:44;;;;;;;22.27;14.90;;;;;;;-144.99;82.93;52317.66;5056023;28;20258;-76
2021/03/10 05:12:10;;;;;;;20.07;13.27;;;;;;;-144.99;82.85;52346.19;5060406;28;20593;-73
2021/03/10 05:14:36;;;;;;;20.77;13.57;;;;;;;-144.99;82.90;52338.03;5058874;28;20628;-76
2021/03/10 05:17:02;;;;;;;19.53;14.83;;;;;;;-144.99;82.91;52313.56;5057294;28;20949;-75
2021/03/10 05:19:29;;;;;;;21.27;14.53;;;;;;;-144.99;86.11;52331.91;5052715;28;21073;-72
2021/03/10 05:21:55;;;;;;;17.13;14.10;;;;;;;-144.99;87.25;52313.56;5060155;28;21242;-71
2021/03/10 05:24:21;;;;;;;18.40;13.50;;;;;;;-144.99;88.38;52313.56;5054776;28;21188;-70
2021/03/10 05:26:48;;;;;;;23.47;14.87;;;;;;;-144.99;88.05;52317.66;5058938;28;20634;-72
2021/03/10 05:29:14;;;;;;;18.17;13.07;;;;;;;-144.99;87.58;52344.16;5059177;28;20201;-73
2021/03/10 05:31:40;;;;;;;19.00;13.77;;;;;;;-144.99;86.71;52313.56;5061829;28;20658;-74
2021/03/10 05:34:06;;;;;;;16.93;12.70;;;;;;;-144.99;86.59;52317.66;5052482;28;20221;-72
2021/03/10 05:36:33;;;;;;;19.60;13.47;;;;;;;-144.99;86.41;52329.88;5060105;28;20739;-72
2021/03/10 05:38:59;;;;;;;19.17;12.77;;;;;;;-144.99;85.81;52317.66;5049871;28;20655;-71
2021/03/10 05:41:26;;;;;;;16.10;11.60;;;;;;;-144.99;85.25;52319.69;5056931;28;20704;-71
2021/03/10 05:43:52;;;;;;;17.93;13.33;;;;;;;-144.99;85.43;52352.28;5061689;28;20201;-73
2021/03/10 05:46:18;;;;;;;21.10;14.43;;;;;;;-144.99;83.83;52336.00;5064148;28;20928;-75
2021/03/10 05:48:44;;;;;;;20.57;13.40;;;;;;;-144.99;82.96;52321.72;5058029;28;21024;-73
2021/03/10 05:51:10;;;;;;;23.80;16.73;;;;;;;-144.99;82.90;52317.66;5063708;28;20654;-72
2021/03/10 05:53:38;;;;;;;34.57;19.30;;;;;;;-144.99;82.87;52378.78;5059905;28;21186;-74
2021/03/10 05:56:05;;;;;;;51.17;29.63;;;;;;;-144.99;82.99;52321.72;4006603;28;10000731;-72
2021/03/10 05:58:31;;;;;;;34.67;21.40;;;;;;;-144.99;83.32;52368.59;5058199;28;20291;-73
2021/03/10 06:00:57;;;;;;;30.17;21.30;;;;;;;-144.99;83.61;52272.81;5055672;28;20659;-73
2021/03/10 06:03:23;;;;;;;22.73;16.17;;;;;;;-144.99;83.65;52333.94;5053568;28;20616;-73
2021/03/10 06:05:59;;;;;;;26.43;16.40;;;;;;;-144.99;83.80;52313.56;5054213;28;21228;-74
2021/03/10 06:08:27;;;;;;;24.77;14.47;;;;;;;-144.99;83.79;52344.16;5057077;28;20634;-71
2021/03/10 06:10:55;;;;;;;26.30;16.93;;;;;;;-144.99;83.92;52297.25;5057539;28;20654;-73
2021/03/10 06:13:22;;;;;;;19.70;13.73;;;;;;;-144.99;83.85;52313.56;5061130;28;20626;-72
2021/03/10 06:15:49;;;;;;;22.83;14.43;;;;;;;-144.99;83.77;52336.00;5056972;28;20715;-74
2021/03/10 06:18:23;;;;;;;21.03;14.33;;;;;;;-144.99;83.49;52311.53;5056661;28;20627;-74
2021/03/10 06:20:49;;;;;;;23.37;15.77;;;;;;;-144.99;83.01;52323.75;5048882;28;21246;-73
2021/03/10 06:23:16;;;;;;;20.73;13.80;;;;;;;-144.99;82.79;52289.13;5058425;28;20631;-72
2021/03/10 06:25:42;;;;;;;24.07;15.53;;;;;;;-144.99;82.32;52297.25;5058098;28;20637;-73
2021/03/10 06:28:10;;;;;;;23.07;15.60;;;;;;;-144.99;81.75;52333.94;5059629;28;20638;-74
2021/03/10 06:30:39;;;;;;;21.03;16.17;;;;;;;-144.99;81.01;52325.81;5059774;28;20647;-72
2021/03/10 06:33:07;;;;;;;19.73;13.37;;;;;;;-144.99;80.70;52346.19;5054340;28;20635;-72
2021/03/10 06:35:34;;;;;;;24.57;14.63;;;;;;;-144.99;80.39;52299.31;5056108;28;20723;-73
2021/03/10 06:38:08;;;;;;;16.23;12.47;;;;;;;-144.99;80.30;52321.72;5059027;28;20642;-71
2021/03/10 06:40:34;;;;;;;19.17;12.97;;;;;;;-144.99;80.18;52362.50;5051126;28;20778;-71
2021/03/10 06:43:01;;;;;;;21.67;15.17;;;;;;;-144.99;79.77;52317.66;5058545;28;20631;-73
2021/03/10 06:45:32;;;;;;;19.93;13.90;;;;;;;-144.99;79.83;52276.88;5064474;28;20822;-72
2021/03/10 06:47:58;;;;;;;22.03;16.00;;;;;;;-144.99;79.62;52321.72;5059679;28;20691;-72
2021/03/10 06:50:34;;;;;;;21.80;16.03;;;;;;;-144.99;79.60;52315.59;5055068;28;21192;-72
2021/03/10 06:53:00;;;;;;;28.20;17.00;;;;;;;-144.99;79.26;52342.09;5055227;28;20645;-72
2021/03/10 06:55:36;;;;;;;22.93;16.13;;;;;;;-144.99;79.35;52346.19;5054345;28;21479;-76
2021/03/10 06:58:03;;;;;;;25.00;18.00;;;;;;;-144.99;79.42;52317.66;5057957;28;21107;-75
2021/03/10 07:00:29;;;;;;;28.10;15.30;;;;;;;-144.99;79.30;52321.72;5056176;28;20667;-75
2021/03/10 07:02:57;;;;;;;20.73;14.07;;;;;;;-144.99;78.75;52342.09;5057170;28;21246;-73
2021/03/10 07:05:24;;;;;;;22.13;15.20;;;;;;;-144.99;78.73;52354.34;5053317;28;20961;-73
2021/03/10 07:07:50;;;;;;;20.60;14.43;;;;;;;-144.99;78.34;52307.47;5058934;28;20631;-73
2021/03/10 07:10:17;;;;;;;24.83;14.23;;;;;;;-144.99;78.63;52297.25;5054110;28;20632;-70
2021/03/10 07:12:44;;;;;;;21.25;16.35;;;;;;;-144.99;78.85;52301.34;5052069;28;20753;-72
2021/03/10 07:15:10;;;;;;;17.43;11.40;;;;;;;-144.99;78.93;52325.81;5051681;28;20300;-76
2021/03/10 07:17:37;;;;;;;22.83;12.37;;;;;;;-144.99;78.83;52325.81;5055864;28;21193;-72
2021/03/10 07:20:05;;;;;;;19.30;12.87;;;;;;;-144.99;78.79;52295.22;5052207;28;20651;-73
2021/03/10 07:22:38;;;;;;;23.00;14.03;;;;;;;-144.99;78.57;52325.81;5058794;28;21224;-73
2021/03/10 07:25:07;;;;;;;16.83;11.97;;;;;;;-144.99;78.50;52321.72;5057138;28;20642;-74
2021/03/10 07:27:38;;;;;;;20.67;14.37;;;;;;;-144.99;78.46;52293.19;5061105;28;20658;-75
2021/03/10 07:30:05;;;;;;;22.77;14.03;;;;;;;-144.99;78.79;52289.13;5055722;28;21298;-73
2021/03/10 07:32:32;;;;;;;17.37;12.20;;;;;;;-144.99;78.82;52333.94;5053239;28;20660;-74
2021/03/10 07:35:03;;;;;;;19.13;13.67;;;;;;;-144.99;78.85;52327.84;5065515;28;21063;-74
2021/03/10 07:37:31;;;;;;;19.80;14.63;;;;;;;-144.99;78.92;52321.72;5060434;28;20641;-73
2021/03/10 07:40:09;;;;;;;17.83;14.87;;;;;;;-144.99;78.93;52311.53;5064151;28;20647;-73
2021/03/10 07:42:35;;;;;;;26.30;14.57;;;;;;;-144.99;78.97;52342.09;5065911;28;20650;-71
2021/03/10 07:45:01;;;;;;;21.10;14.47;;;;;;;-144.99;78.93;52346.19;5060413;28;20750;-73
2021/03/10 07:47:28;;;;;;;20.50;14.70;;;;;;;-144.99;78.83;52321.72;5050505;28;20631;-76
2021/03/10 07:49:59;;;;;;;24.00;15.23;;;;;;;-144.99;79.63;52319.69;5050808;28;20979;-77
2021/03/10 07:52:27;;;;;;;21.97;14.90;;;;;;;-144.99;79.61;52256.50;5059796;28;20822;-74
2021/03/10 07:54:59;;;;;;;26.93;18.30;;;;;;;-144.99;79.63;52354.34;5061134;28;20677;-72
2021/03/10 07:57:25;;;;;;;22.30;14.57;;;;;;;-144.99;79.13;52313.56;5056569;28;20642;-71
2021/03/10 07:59:56;;;;;;;22.23;13.40;;;;;;;-144.99;79.28;52299.31;5058448;28;20685;-72
2021/03/10 08:02:23;;;;;;;19.60;14.00;;;;;;;-144.99;79.30;52301.34;5086615;22;20728;-77
2021/03/10 08:04:54;;;;;;;22.77;15.33;;;;;;;-144.99;79.30;52305.41;5081709;28;21052;-78
2021/03/10 08:07:25;;;;;;;22.73;15.43;;;;;;;-144.99;78.96;52313.56;5085692;28;20635;-78
2021/03/10 08:09:52;;;;;;;20.40;16.07;;;;;;;-144.99;79.24;52342.09;5091125;28;20626;-77
2021/03/10 08:12:31;;;;;;;22.47;15.57;;;;;;;-144.99;79.32;52311.53;5083452;28;20955;-79
2021/03/10 08:14:58;;;;;;;21.73;14.20;;;;;;;-144.99;79.60;52303.38;5077198;28;20691;-79
2021/03/10 08:17:25;;;;;;;23.87;17.13;;;;;;;-144.99;79.54;52325.81;5082908;28;21137;-77
2021/03/10 08:19:52;;;;;;;28.23;18.47;;;;;;;-144.99;79.48;52301.34;5081581;28;20738;-78
2021/03/10 08:22:20;;;;;;;26.30;17.87;;;;;;;-144.99;79.48;52301.34;5077846;28;21063;-77
2021/03/10 08:24:46;;;;;;;21.87;15.53;;;;;;;-144.99;79.79;52276.88;5081188;28;20631;-82
2021/03/10 08:27:12;;;;;;;28.13;17.63;;;;;;;-144.99;79.90;52305.41;5081601;28;20627;-79
2021/03/10 08:29:47;;;;;;;25.00;17.73;;;;;;;-144.99;80.20;52311.53;5088259;28;20703;-78
2021/03/10 08:32:23;;;;;;;23.63;16.13;;;;;;;-144.99;80.15;52307.47;5083095;28;20628;-79
2021/03/10 08:34:50;;;;;;;28.63;18.90;;;;;;;-144.99;80.22;52280.97;5083154;28;20662;-79
2021/03/10 08:37:16;;;;;;;29.60;19.00;;;;;;;-144.99;80.51;52260.56;5077709;28;20757;-79
2021/03/10 08:39:44;;;;;;;28.70;20.67;;;;;;;-144.99;80.72;52299.31;5085022;28;21038;-77
2021/03/10 08:42:10;;;;;;;20.70;17.20;;;;;;;-144.99;81.07;52317.66;5085258;28;20648;-76
2021/03/10 08:44:40;;;;;;;28.53;23.20;;;;;;;-144.99;81.15;52260.56;5082949;28;20668;-80
2021/03/10 08:47:12;;;;;;;26.10;17.47;;;;;;;-144.99;81.21;52301.34;5083761;28;20650;-77
2021/03/10 08:49:39;;;;;;;32.50;20.10;;;;;;;-144.99;81.49;52317.66;5079100;28;20627;-81
2021/03/10 08:52:11;;;;;;;26.60;18.40;;;;;;;-144.99;81.86;52260.56;5085606;28;21162;-80
2021/03/10 08:54:49;;;;;;;34.43;19.93;;;;;;;-144.99;81.94;52293.19;5081636;28;21125;-79
2021/03/10 08:57:15;;;;;;;26.93;18.50;;;;;;;-144.99;82.52;52270.78;5080865;28;20637;-77
2021/03/10 08:59:41;;;;;;;32.13;22.70;;;;;;;-144.99;83.33;52301.34;5086696;28;20737;-78
2021/03/10 09:02:08;;;;;;;30.20;21.30;;;;;;;-144.99;83.92;52280.97;5089650;28;20925;-77
2021/03/10 09:04:36;;;;;;;27.67;20.87;;;;;;;-144.99;83.82;52272.81;5088982;28;20869;-78
2021/03/10 09:07:03;;;;;;;49.20;29.70;;;;;;;-144.99;84.58;52289.13;5089127;28;20724;-78
2021/03/10 09:09:33;;;;;;;29.13;20.10;;;;;;;-144.99;84.90;52264.66;5087780;28;20707;-81
2021/03/10 09:12:00;;;;;;;31.27;21.10;;;;;;;-144.99;85.06;52297.25;5086850;28;20649;-77
2021/03/10 09:14:27;;;;;;;32.13;20.17;;;;;;;-144.99;85.05;52293.19;5085148;28;20684;-78
2021/03/10 09:16:55;;;;;;;28.90;19.60;;;;;;;-144.99;84.93;52266.69;5087687;28;20646;-78
2021/03/10 09:19:37;;;;;;;32.90;20.40;;;;;;;-144.99;85.10;52317.66;5089007;28;20646;-79
2021/03/10 09:22:16;;;;;;;33.83;22.30;;;;;;;-144.99;85.11;52297.25;5089243;28;20638;-78
2021/03/10 09:24:54;;;;;;;30.70;19.93;;;;;;;-144.99;85.28;52283.00;5086782;28;20780;-81
2021/03/10 09:27:23;;;;;;;29.20;22.37;;;;;;;-144.99;85.79;52285.03;5077152;28;20713;-78
2021/03/10 09:29:50;;;;;;;34.90;23.77;;;;;;;-144.99;85.28;52287.06;5090726;28;20719;-77
2021/03/10 09:32:16;;;;;;;35.53;24.47;;;;;;;-144.99;85.93;52260.56;5081181;28;21228;-81
2021/03/10 09:34:47;;;;;;;35.43;26.93;;;;;;;-144.99;85.63;52256.50;5097162;28;20671;-77
2021/03/10 09:37:14;;;;;;;30.40;22.30;;;;;;;-144.99;85.32;52252.44;5084264;28;20637;-78
2021/03/10 09:39:45;;;;;;;30.40;23.33;;;;;;;-144.99;85.63;52293.19;5084125;28;20673;-80
2021/03/10 09:42:13;;;;;;;33.87;23.83;;;;;;;-144.99;85.84;52297.25;5094823;28;20638;-80
2021/03/10 09:44:44;;;;;;;31.83;23.23;;;;;;;-144.99;86.07;52250.38;5104266;28;20669;-79
2021/03/10 09:47:21;;;;;;;33.97;24.60;;;;;;;-144.99;86.55;52313.56;5096837;28;20634;-78
2021/03/10 09:49:51;;;;;;;30.80;22.27;;;;;;;-144.99;86.12;52285.03;5098962;28;20747;-78
2021/03/10 09:52:18;;;;;;;37.63;24.07;;;;;;;-144.99;86.68;52252.44;5091646;28;20630;-79
2021/03/10 09:54:53;;;;;;;36.47;22.77;;;;;;;-144.99;86.79;52248.34;5091528;28;20635;-80
2021/03/10 09:57:23;;;;;;;30.97;24.20;;;;;;;-144.99;86.58;52323.75;5088175;28;20636;-77
2021/03/10 09:59:50;;;;;;;33.03;22.03;;;;;;;-144.99;86.49;52270.78;5084920;28;20668;-78
2021/03/10 10:02:17;;;;;;;32.50;24.93;;;;;;;-144.99;86.81;52272.81;5091856;28;20669;-79
2021/03/10 10:04:44;;;;;;;28.33;22.30;;;;;;;-144.99;86.05;52311.53;5095764;28;20666;-80
2021/03/10 10:07:13;;;;;;;30.77;22.23;;;;;;;-144.99;85.90;52264.66;5088220;28;21405;-78
2021/03/10 10:09:41;;;;;;;36.10;24.77;;;;;;;-144.99;85.63;52285.03;5089899;28;20630;-79
2021/03/10 10:12:08;;;;;;;34.93;27.27;;;;;;;-144.99;85.17;52276.88;5093991;28;20628;-79
2021/03/10 10:14:34;;;;;;;41.90;29.17;;;;;;;-144.99;84.62;52256.50;5096747;28;20669;-79
2021/03/10 10:17:01;;;;;;;28.90;21.83;;;;;;;-144.99;83.24;52252.44;5092110;28;20624;-79
2021/03/10 10:19:27;;;;;;;27.13;23.07;;;;;;;-144.99;82.27;52276.88;5092245;28;21309;-74
2021/03/10 10:21:56;;;;;;;33.47;21.60;;;;;;;-144.99;82.95;52268.72;5087911;28;20622;-79
2021/03/10 10:24:29;;;;;;;28.27;25.07;;;;;;;-144.99;82.84;52260.56;5095550;28;20650;-82
2021/03/10 10:27:02;;;;;;;31.80;21.90;;;;;;;-144.99;83.21;52317.66;5086157;28;20668;-80
2021/03/10 10:29:28;;;;;;;29.73;21.50;;;;;;;-144.99;81.68;52280.97;5088719;28;20628;-79
2021/03/10 10:31:54;;;;;;;26.83;20.63;;;;;;;-144.99;81.08;52248.34;5087996;28;20657;-80
2021/03/10 10:34:21;;;;;;;27.43;20.23;;;;;;;-144.99;80.29;52219.81;5090895;28;20760;-78
2021/03/10 10:36:47;;;;;;;31.40;21.57;;;;;;;-144.99;79.10;52285.03;5083906;28;20637;-79
2021/03/10 10:39:14;;;;;;;29.57;22.10;;;;;;;-144.99;79.99;52244.28;5091083;28;20622;-76
2021/03/10 10:41:42;;;;;;;34.30;22.10;;;;;;;-144.99;80.05;52240.19;5085736;28;22815;-78
2021/03/10 10:44:08;;;;;;;30.80;23.37;;;;;;;-144.99;80.14;52236.13;5087118;28;20733;-79
2021/03/10 10:46:35;;;;;;;26.50;20.80;;;;;;;-144.99;79.60;52309.50;5077013;28;20625;-74
2021/03/10 10:49:01;;;;;;;28.30;21.80;;;;;;;-144.99;79.42;52256.50;5090309;28;21021;-79
2021/03/10 10:51:29;;;;;;;26.93;22.50;;;;;;;-144.99;79.52;52227.97;5095131;28;20703;-78
2021/03/10 10:53:55;;;;;;;26.47;22.27;;;;;;;-144.99;78.63;52244.28;5091937;28;20228;-78
2021/03/10 10:56:22;;;;;;;30.67;22.60;;;;;;;-144.99;78.47;52250.38;5077408;28;21246;-76
2021/03/10 10:58:49;;;;;;;29.50;21.37;;;;;;;-144.99;78.07;52256.50;5073197;28;20208;-76
2021/03/10 11:01:15;;;;;;;25.50;21.60;;;;;;;-144.99;77.48;52272.81;5085025;28;20681;-80
2021/03/10 11:03:41;;;;;;;27.23;20.50;;;;;;;-144.99;77.72;52223.88;5093065;28;20232;-81
2021/03/10 11:06:08;;;;;;;26.27;18.87;;;;;;;-144.99;76.50;52240.19;5088313;28;20626;-77